createdAt,value
2018-11-13T00:00:30.347Z,18.12
2018-11-13T00:06:25.358Z,17.56
2018-11-13T00:12:20.398Z,16.1
2018-11-13T00:18:15.392Z,16.05
2018-11-13T00:24:10.384Z,16.34
2018-11-13T00:30:05.361Z,15.84
2018-11-13T00:36:00.446Z,14.26
2018-11-13T00:41:55.394Z,15.05
2018-11-13T00:47:50.379Z,14.36
2018-11-13T00:53:45.419Z,15.29
2018-11-13T00:59:40.422Z,14.44
2018-11-13T01:05:35.432Z,14.13
2018-11-13T01:11:30.423Z,15.64
2018-11-13T01:17:25.478Z,16.33
2018-11-13T01:23:20.404Z,16.23
2018-11-13T01:29:15.421Z,13.57
2018-11-13T01:35:10.468Z,14.04
2018-11-13T01:41:05.401Z,14.67
2018-11-13T01:47:00.423Z,14.81
2018-11-13T01:52:55.418Z,13.2
2018-11-13T01:58:50.430Z,13.18
2018-11-13T02:04:45.433Z,13.3
2018-11-13T02:10:40.425Z,13.6
2018-11-13T02:16:35.467Z,14.17
2018-11-13T02:22:30.425Z,13.2
2018-11-13T02:28:25.455Z,13.21
2018-11-13T02:34:20.463Z,13.36
2018-11-13T02:40:15.446Z,12.89
2018-11-13T02:46:10.455Z,12.59
2018-11-13T02:52:05.517Z,13.01
2018-11-13T02:58:00.486Z,14.86
2018-11-13T03:03:55.517Z,14.18
2018-11-13T03:09:50.474Z,14.39
2018-11-13T03:15:45.493Z,13.95
2018-11-13T03:21:40.492Z,13.41
2018-11-13T03:27:35.530Z,11.9
2018-11-13T03:33:30.473Z,13.46
2018-11-13T03:39:25.490Z,12.13
2018-11-13T03:45:20.481Z,13.64
2018-11-13T03:51:15.541Z,13.08
2018-11-13T03:57:10.491Z,12.75
2018-11-13T04:03:05.553Z,12.78
2018-11-13T04:09:00.516Z,12.68
2018-11-13T04:14:55.540Z,11.63
2018-11-13T04:20:50.551Z,12.85
2018-11-13T04:26:45.541Z,11.48
2018-11-13T04:32:40.530Z,11.18
2018-11-13T04:38:35.552Z,11.7
2018-11-13T04:44:30.498Z,11.67
2018-11-13T04:50:25.550Z,11.35
2018-11-13T04:56:20.532Z,12.16
2018-11-13T05:02:15.529Z,11.23
2018-11-13T05:08:10.579Z,9.96
2018-11-13T05:14:05.531Z,9.87
2018-11-13T05:20:00.600Z,10.11
2018-11-13T05:25:55.520Z,10.47
2018-11-13T05:31:50.527Z,9.79
2018-11-13T05:37:45.536Z,7.7
2018-11-13T05:43:40.618Z,8.11
2018-11-13T05:49:35.563Z,8.61
2018-11-13T05:55:30.584Z,9.64
2018-11-13T06:01:25.565Z,9
2018-11-13T06:07:20.564Z,11.79
2018-11-13T06:13:15.561Z,6.5
2018-11-13T06:19:10.562Z,10.4
2018-11-13T06:25:05.585Z,8.11
2018-11-13T06:31:00.598Z,7.75
2018-11-13T06:36:55.599Z,8.23
2018-11-13T06:42:50.589Z,10.07
2018-11-13T06:48:45.587Z,9.09
2018-11-13T06:54:40.577Z,9.44
2018-11-13T07:00:35.597Z,9.38
2018-11-13T07:06:30.625Z,8.2
2018-11-13T07:12:25.568Z,7.1
2018-11-13T07:18:20.605Z,8.03
2018-11-13T07:24:15.629Z,8.9
2018-11-13T07:30:10.635Z,11.12
2018-11-13T07:36:05.592Z,13.01
2018-11-13T07:42:00.596Z,15.16
2018-11-13T07:47:55.676Z,14.72
2018-11-13T07:53:50.600Z,14.79
2018-11-13T07:59:45.661Z,14.64
2018-11-13T08:05:40.644Z,14.55
2018-11-13T08:11:35.612Z,14.53
2018-11-13T08:17:30.676Z,13.5
2018-11-13T08:23:25.652Z,13.31
2018-11-13T08:29:20.717Z,11.84
2018-11-13T08:35:15.648Z,11.96
2018-11-13T08:41:10.621Z,16.8
2018-11-13T08:47:05.643Z,17.25
2018-11-13T08:53:00.645Z,15.26
2018-11-13T08:58:55.747Z,14.54
2018-11-13T09:04:50.738Z,20.17
2018-11-13T09:10:45.652Z,17.3
2018-11-13T09:16:40.744Z,19.78
2018-11-13T09:22:35.695Z,19.74
2018-11-13T09:28:30.658Z,23.63
2018-11-13T09:34:25.663Z,25.59
2018-11-13T09:40:20.674Z,24.98
2018-11-13T09:46:15.717Z,23.21
2018-11-13T09:52:10.656Z,25.92
2018-11-13T09:58:05.678Z,29.1
2018-11-13T10:04:01.329Z,30.28
2018-11-13T10:09:55.683Z,31.95
2018-11-13T10:15:50.683Z,30.8
2018-11-13T10:21:45.672Z,27.78
2018-11-13T10:27:40.737Z,26.97
2018-11-13T10:33:35.693Z,30.8
2018-11-13T10:39:30.694Z,29.76
2018-11-13T10:45:25.703Z,28.75
2018-11-13T10:51:20.690Z,27.44
2018-11-13T10:57:15.689Z,19.13
2018-11-13T11:03:10.711Z,29.49
2018-11-13T11:09:05.704Z,29.49
2018-11-13T11:15:00.746Z,29.67
2018-11-13T11:20:55.777Z,13.33
2018-11-13T11:26:50.711Z,35.34
2018-11-13T11:32:45.721Z,36.88
2018-11-13T11:38:40.866Z,35.34
2018-11-13T11:44:35.844Z,31
2018-11-13T11:50:30.779Z,30.63
2018-11-13T11:56:25.738Z,28.96
2018-11-13T12:02:20.869Z,29.55
2018-11-13T12:08:15.756Z,28.68
2018-11-13T12:14:10.751Z,27.77
2018-11-13T12:20:05.788Z,29.9
2018-11-13T12:26:00.945Z,29.97
2018-11-13T12:31:55.751Z,34.54
2018-11-13T12:37:50.765Z,36.37
2018-11-13T12:43:45.756Z,33.05
2018-11-13T12:49:40.757Z,30.93
2018-11-13T12:55:35.841Z,36.03
2018-11-13T13:01:30.795Z,33.11
2018-11-13T13:07:25.766Z,30.94
2018-11-13T13:13:20.760Z,34.22
2018-11-13T13:19:15.762Z,32.97
2018-11-13T13:25:10.823Z,33.44
2018-11-13T13:31:05.792Z,32.92
2018-11-13T13:37:00.783Z,33.34
2018-11-13T13:42:55.799Z,33.76
2018-11-13T13:48:50.828Z,37.12
2018-11-13T13:54:45.794Z,30.45
2018-11-13T14:00:40.902Z,28.73
2018-11-13T14:06:35.801Z,28.3
2018-11-13T14:12:30.823Z,27.49
2018-11-13T14:18:25.803Z,27.97
2018-11-13T14:24:20.823Z,31.59
2018-11-13T14:30:15.817Z,70.1
2018-11-13T14:36:10.827Z,35.24
2018-11-13T14:42:05.809Z,27.12
2018-11-13T14:48:00.845Z,27.28
2018-11-13T14:53:55.820Z,27.16
2018-11-13T14:59:50.920Z,27.9
2018-11-13T15:05:45.816Z,27.42
2018-11-13T15:11:40.847Z,28.24
2018-11-13T15:17:35.861Z,26.01
2018-11-13T15:23:30.850Z,26.36
2018-11-13T15:29:25.853Z,27.4
2018-11-13T15:35:20.882Z,26.02
2018-11-13T15:41:15.854Z,27.68
2018-11-13T15:47:10.834Z,28.74
2018-11-13T15:53:05.866Z,28.37
2018-11-13T15:59:00.872Z,28.69
2018-11-13T16:04:55.869Z,31.72
2018-11-13T16:10:50.847Z,33.19
2018-11-13T16:16:45.861Z,35.32
2018-11-13T16:22:40.883Z,30.4
2018-11-13T16:28:35.871Z,27.93
2018-11-13T16:34:30.873Z,34.82
2018-11-13T16:40:25.872Z,32.63
2018-11-13T16:46:20.898Z,32.54
2018-11-13T16:52:15.931Z,39.38
2018-11-13T16:58:10.881Z,34.49
2018-11-13T17:04:05.981Z,23.41
2018-11-13T17:10:00.941Z,22.58
2018-11-13T17:15:55.899Z,22.43
2018-11-13T17:21:50.947Z,25.9
2018-11-13T17:27:45.929Z,32.09
2018-11-13T17:33:40.925Z,31.33
2018-11-13T17:39:35.977Z,39.36
2018-11-13T17:45:30.909Z,44.43
2018-11-13T17:51:25.963Z,37.62
2018-11-13T17:57:20.953Z,34.42
2018-11-13T18:03:15.968Z,38.37
2018-11-13T18:09:10.949Z,32.05
2018-11-13T18:15:05.931Z,31.22
2018-11-13T18:21:00.968Z,32.73
2018-11-13T18:26:55.964Z,32.46
2018-11-13T18:32:50.981Z,31.07
2018-11-13T18:38:46.076Z,31.07
2018-11-13T18:44:41.002Z,40.34
2018-11-13T18:50:35.956Z,37.85
2018-11-13T18:56:30.983Z,44.79
2018-11-13T19:02:25.980Z,41.21
2018-11-13T19:08:20.965Z,44.35
2018-11-13T19:14:15.987Z,40.97
2018-11-13T19:20:11.030Z,38.87
2018-11-13T19:26:05.990Z,53.18
2018-11-13T19:32:00.967Z,43.77
2018-11-13T19:37:55.977Z,40.53
2018-11-13T19:43:50.973Z,41.66
2018-11-13T19:49:46.097Z,38.07
2018-11-13T19:55:41.006Z,29.86
2018-11-13T20:01:35.967Z,29.4
2018-11-13T20:07:31.038Z,34.18
2018-11-13T20:13:26.024Z,37.59
2018-11-13T20:19:21.008Z,32.03
2018-11-13T20:25:15.987Z,35.74
2018-11-13T20:31:11.075Z,45.24
2018-11-13T20:37:06.048Z,48.2
2018-11-13T20:43:01.003Z,49.77
2018-11-13T20:48:56.023Z,49
2018-11-13T20:54:51.010Z,51.19
2018-11-13T21:00:46.031Z,49.78
2018-11-13T21:06:41.032Z,46.92
2018-11-13T21:12:36.030Z,43.23
2018-11-13T21:18:31.039Z,43.88
2018-11-13T21:24:26.397Z,44.96
2018-11-13T21:30:21.056Z,42.44
2018-11-13T21:36:16.082Z,45.43
2018-11-13T21:42:11.050Z,44.92
2018-11-13T21:48:06.110Z,45.98
2018-11-13T21:54:01.064Z,46.28
2018-11-13T21:59:56.083Z,43.99
2018-11-13T22:05:51.066Z,43.44
2018-11-13T22:11:46.084Z,42.69
2018-11-13T22:17:41.126Z,36.33
2018-11-13T22:23:36.202Z,31.52
2018-11-13T22:29:31.067Z,28.64
2018-11-13T22:35:26.097Z,27.65
2018-11-13T22:41:21.185Z,29.47
2018-11-13T22:47:16.163Z,34.61
2018-11-13T22:53:11.065Z,32.07
2018-11-13T22:59:06.127Z,30.33
2018-11-13T23:05:01.078Z,32.73
2018-11-13T23:10:56.099Z,36.46
2018-11-13T23:16:51.150Z,34.72
2018-11-13T23:22:46.116Z,41.6
2018-11-13T23:28:41.149Z,32.47
2018-11-13T23:34:36.116Z,30.47
2018-11-13T23:40:31.125Z,28.51
2018-11-13T23:46:26.102Z,28.25
2018-11-13T23:52:21.110Z,34.17
2018-11-13T23:58:16.109Z,47.09
